sensor_id;sensor_type;location;lat;lon;timestamp;P1;durP1;ratioP1;P2;durP2;ratioP2
23175;SDS011;19910;42.652;23.332;2022-08-14T00:01:48;12.43;;;7.35;;
23175;SDS011;19910;42.652;23.332;2022-08-14T00:04:15;16.90;;;8.40;;
23175;SDS011;19910;42.652;23.332;2022-08-14T00:06:41;15.68;;;8.35;;
23175;SDS011;19910;42.652;23.332;2022-08-14T00:09:08;15.57;;;7.28;;
23175;SDS011;19910;42.652;23.332;2022-08-14T00:11:37;14.20;;;8.65;;
23175;SDS011;19910;42.652;23.332;2022-08-14T00:14:03;21.27;;;11.75;;
23175;SDS011;19910;42.652;23.332;2022-08-14T00:16:30;21.20;;;13.00;;
23175;SDS011;19910;42.652;23.332;2022-08-14T00:18:58;14.90;;;7.93;;
23175;SDS011;19910;42.652;23.332;2022-08-14T00:21:25;15.00;;;7.18;;
23175;SDS011;19910;42.652;23.332;2022-08-14T00:23:52;16.33;;;8.07;;
23175;SDS011;19910;42.652;23.332;2022-08-14T00:26:21;19.30;;;11.48;;
23175;SDS011;19910;42.652;23.332;2022-08-14T00:28:49;14.98;;;7.43;;
23175;SDS011;19910;42.652;23.332;2022-08-14T00:31:17;13.05;;;7.50;;
23175;SDS011;19910;42.652;23.332;2022-08-14T00:33:45;16.23;;;8.63;;
23175;SDS011;19910;42.652;23.332;2022-08-14T00:36:12;19.90;;;12.10;;
23175;SDS011;19910;42.652;23.332;2022-08-14T00:38:38;15.25;;;7.65;;
23175;SDS011;19910;42.652;23.332;2022-08-14T00:41:06;12.00;;;7.50;;
23175;SDS011;19910;42.652;23.332;2022-08-14T00:43:33;18.52;;;9.52;;
23175;SDS011;19910;42.652;23.332;2022-08-14T00:46:03;16.88;;;8.18;;
23175;SDS011;19910;42.652;23.332;2022-08-14T00:48:32;11.10;;;7.65;;
23175;SDS011;19910;42.652;23.332;2022-08-14T00:50:59;17.35;;;9.60;;
23175;SDS011;19910;42.652;23.332;2022-08-14T00:53:27;17.95;;;8.70;;
23175;SDS011;19910;42.652;23.332;2022-08-14T00:55:54;15.13;;;7.93;;
23175;SDS011;19910;42.652;23.332;2022-08-14T00:58:22;19.15;;;9.25;;
23175;SDS011;19910;42.652;23.332;2022-08-14T01:00:59;15.55;;;8.88;;
23175;SDS011;19910;42.652;23.332;2022-08-14T01:03:30;15.20;;;8.93;;
23175;SDS011;19910;42.652;23.332;2022-08-14T01:06:04;23.23;;;11.95;;
23175;SDS011;19910;42.652;23.332;2022-08-14T01:08:33;17.75;;;8.82;;
23175;SDS011;19910;42.652;23.332;2022-08-14T01:11:01;16.77;;;8.13;;
23175;SDS011;19910;42.652;23.332;2022-08-14T01:13:29;22.15;;;10.55;;
23175;SDS011;19910;42.652;23.332;2022-08-14T01:15:58;16.25;;;7.45;;
23175;SDS011;19910;42.652;23.332;2022-08-14T01:18:27;19.75;;;9.60;;
23175;SDS011;19910;42.652;23.332;2022-08-14T01:21:15;28.42;;;10.25;;
23175;SDS011;19910;42.652;23.332;2022-08-14T01:23:49;23.60;;;10.23;;
23175;SDS011;19910;42.652;23.332;2022-08-14T01:26:18;17.52;;;9.60;;
23175;SDS011;19910;42.652;23.332;2022-08-14T01:28:47;22.48;;;9.73;;
23175;SDS011;19910;42.652;23.332;2022-08-14T01:31:17;19.10;;;10.02;;
23175;SDS011;19910;42.652;23.332;2022-08-14T01:33:45;33.17;;;18.20;;
23175;SDS011;19910;42.652;23.332;2022-08-14T01:36:14;26.10;;;12.13;;
23175;SDS011;19910;42.652;23.332;2022-08-14T01:38:44;38.83;;;18.75;;
23175;SDS011;19910;42.652;23.332;2022-08-14T01:41:15;34.83;;;17.77;;
23175;SDS011;19910;42.652;23.332;2022-08-14T01:43:44;18.45;;;8.90;;
23175;SDS011;19910;42.652;23.332;2022-08-14T01:46:14;18.90;;;9.32;;
23175;SDS011;19910;42.652;23.332;2022-08-14T01:48:42;16.52;;;9.55;;
23175;SDS011;19910;42.652;23.332;2022-08-14T01:51:10;20.55;;;10.40;;
23175;SDS011;19910;42.652;23.332;2022-08-14T01:53:40;18.42;;;9.50;;
23175;SDS011;19910;42.652;23.332;2022-08-14T01:56:08;20.85;;;8.88;;
23175;SDS011;19910;42.652;23.332;2022-08-14T01:58:36;34.35;;;18.67;;
23175;SDS011;19910;42.652;23.332;2022-08-14T02:01:04;24.92;;;11.80;;
23175;SDS011;19910;42.652;23.332;2022-08-14T02:03:31;18.90;;;10.25;;
23175;SDS011;19910;42.652;23.332;2022-08-14T02:06:05;20.27;;;9.50;;
23175;SDS011;19910;42.652;23.332;2022-08-14T02:08:32;15.80;;;9.02;;
23175;SDS011;19910;42.652;23.332;2022-08-14T02:11:02;14.70;;;8.30;;
23175;SDS011;19910;42.652;23.332;2022-08-14T02:13:50;17.33;;;9.00;;
23175;SDS011;19910;42.652;23.332;2022-08-14T02:16:22;12.85;;;7.47;;
23175;SDS011;19910;42.652;23.332;2022-08-14T02:18:51;13.40;;;7.20;;
23175;SDS011;19910;42.652;23.332;2022-08-14T02:21:19;15.60;;;8.57;;
23175;SDS011;19910;42.652;23.332;2022-08-14T02:23:46;12.18;;;6.15;;
23175;SDS011;19910;42.652;23.332;2022-08-14T02:26:16;14.55;;;7.97;;
23175;SDS011;19910;42.652;23.332;2022-08-14T02:28:44;11.38;;;6.68;;
23175;SDS011;19910;42.652;23.332;2022-08-14T02:31:13;15.32;;;8.30;;
23175;SDS011;19910;42.652;23.332;2022-08-14T02:33:40;12.68;;;6.18;;
23175;SDS011;19910;42.652;23.332;2022-08-14T02:36:08;16.45;;;7.07;;
23175;SDS011;19910;42.652;23.332;2022-08-14T02:38:37;10.57;;;6.90;;
23175;SDS011;19910;42.652;23.332;2022-08-14T02:41:09;10.15;;;6.57;;
23175;SDS011;19910;42.652;23.332;2022-08-14T02:43:38;11.43;;;7.43;;
23175;SDS011;19910;42.652;23.332;2022-08-14T02:46:06;11.93;;;6.63;;
23175;SDS011;19910;42.652;23.332;2022-08-14T02:48:36;11.90;;;6.47;;
23175;SDS011;19910;42.652;23.332;2022-08-14T02:51:08;13.48;;;6.72;;
23175;SDS011;19910;42.652;23.332;2022-08-14T02:53:37;14.15;;;7.75;;
23175;SDS011;19910;42.652;23.332;2022-08-14T02:56:06;14.20;;;7.22;;
23175;SDS011;19910;42.652;23.332;2022-08-14T02:58:35;11.52;;;5.97;;
23175;SDS011;19910;42.652;23.332;2022-08-14T03:01:04;12.75;;;7.18;;
23175;SDS011;19910;42.652;23.332;2022-08-14T03:03:32;13.20;;;7.88;;
23175;SDS011;19910;42.652;23.332;2022-08-14T03:06:02;13.48;;;7.25;;
23175;SDS011;19910;42.652;23.332;2022-08-14T03:08:30;9.80;;;5.82;;
23175;SDS011;19910;42.652;23.332;2022-08-14T03:10:58;15.52;;;7.18;;
23175;SDS011;19910;42.652;23.332;2022-08-14T03:13:25;13.73;;;7.65;;
23175;SDS011;19910;42.652;23.332;2022-08-14T03:15:52;15.98;;;8.45;;
23175;SDS011;19910;42.652;23.332;2022-08-14T03:18:20;11.38;;;7.43;;
23175;SDS011;19910;42.652;23.332;2022-08-14T03:20:48;12.63;;;7.25;;
23175;SDS011;19910;42.652;23.332;2022-08-14T03:23:17;12.02;;;7.43;;
23175;SDS011;19910;42.652;23.332;2022-08-14T03:25:44;17.33;;;8.75;;
23175;SDS011;19910;42.652;23.332;2022-08-14T03:28:12;22.45;;;11.90;;
23175;SDS011;19910;42.652;23.332;2022-08-14T03:30:39;16.20;;;8.02;;
23175;SDS011;19910;42.652;23.332;2022-08-14T03:33:08;25.00;;;15.13;;
23175;SDS011;19910;42.652;23.332;2022-08-14T03:35:36;18.92;;;10.40;;
23175;SDS011;19910;42.652;23.332;2022-08-14T03:38:05;18.10;;;9.07;;
23175;SDS011;19910;42.652;23.332;2022-08-14T03:40:36;21.73;;;9.38;;
23175;SDS011;19910;42.652;23.332;2022-08-14T03:43:04;16.42;;;8.88;;
23175;SDS011;19910;42.652;23.332;2022-08-14T03:45:31;17.08;;;8.95;;
23175;SDS011;19910;42.652;23.332;2022-08-14T03:48:00;18.10;;;8.35;;
23175;SDS011;19910;42.652;23.332;2022-08-14T03:50:28;19.02;;;8.93;;
23175;SDS011;19910;42.652;23.332;2022-08-14T03:52:56;12.80;;;7.63;;
23175;SDS011;19910;42.652;23.332;2022-08-14T03:55:24;21.17;;;10.45;;
23175;SDS011;19910;42.652;23.332;2022-08-14T03:57:54;18.55;;;9.88;;
23175;SDS011;19910;42.652;23.332;2022-08-14T04:00:21;18.50;;;8.73;;
23175;SDS011;19910;42.652;23.332;2022-08-14T04:02:48;17.85;;;9.23;;
23175;SDS011;19910;42.652;23.332;2022-08-14T04:05:15;22.90;;;8.82;;
23175;SDS011;19910;42.652;23.332;2022-08-14T04:07:41;17.75;;;9.60;;
23175;SDS011;19910;42.652;23.332;2022-08-14T04:10:08;19.55;;;8.60;;
23175;SDS011;19910;42.652;23.332;2022-08-14T04:12:35;16.42;;;8.18;;
23175;SDS011;19910;42.652;23.332;2022-08-14T04:15:04;20.80;;;10.75;;
23175;SDS011;19910;42.652;23.332;2022-08-14T04:17:33;20.92;;;10.20;;
23175;SDS011;19910;42.652;23.332;2022-08-14T04:20:00;20.15;;;11.07;;
23175;SDS011;19910;42.652;23.332;2022-08-14T04:22:30;25.02;;;11.80;;
23175;SDS011;19910;42.652;23.332;2022-08-14T04:24:57;20.52;;;11.07;;
23175;SDS011;19910;42.652;23.332;2022-08-14T04:27:25;22.08;;;11.40;;
23175;SDS011;19910;42.652;23.332;2022-08-14T04:29:53;15.70;;;9.38;;
23175;SDS011;19910;42.652;23.332;2022-08-14T04:32:23;18.08;;;9.68;;
23175;SDS011;19910;42.652;23.332;2022-08-14T04:34:51;19.45;;;9.90;;
23175;SDS011;19910;42.652;23.332;2022-08-14T04:37:20;26.30;;;11.10;;
23175;SDS011;19910;42.652;23.332;2022-08-14T04:40:05;16.25;;;9.38;;
23175;SDS011;19910;42.652;23.332;2022-08-14T04:42:50;20.70;;;10.40;;
23175;SDS011;19910;42.652;23.332;2022-08-14T04:45:35;22.27;;;11.18;;
23175;SDS011;19910;42.652;23.332;2022-08-14T04:48:07;20.13;;;9.75;;
23175;SDS011;19910;42.652;23.332;2022-08-14T04:50:37;19.25;;;9.63;;
23175;SDS011;19910;42.652;23.332;2022-08-14T04:53:04;23.70;;;14.73;;
23175;SDS011;19910;42.652;23.332;2022-08-14T04:55:31;14.23;;;7.53;;
23175;SDS011;19910;42.652;23.332;2022-08-14T04:57:59;18.33;;;9.52;;
23175;SDS011;19910;42.652;23.332;2022-08-14T05:00:26;19.20;;;10.27;;
23175;SDS011;19910;42.652;23.332;2022-08-14T05:02:53;15.60;;;9.07;;
23175;SDS011;19910;42.652;23.332;2022-08-14T05:05:22;21.83;;;14.30;;
23175;SDS011;19910;42.652;23.332;2022-08-14T05:07:49;20.85;;;14.38;;
23175;SDS011;19910;42.652;23.332;2022-08-14T05:10:16;20.75;;;14.00;;
23175;SDS011;19910;42.652;23.332;2022-08-14T05:12:50;20.63;;;13.68;;
23175;SDS011;19910;42.652;23.332;2022-08-14T05:15:17;17.50;;;9.80;;
23175;SDS011;19910;42.652;23.332;2022-08-14T05:17:45;16.40;;;7.95;;
23175;SDS011;19910;42.652;23.332;2022-08-14T05:20:13;18.55;;;9.93;;
23175;SDS011;19910;42.652;23.332;2022-08-14T05:22:42;15.27;;;9.73;;
23175;SDS011;19910;42.652;23.332;2022-08-14T05:25:09;13.40;;;7.85;;
23175;SDS011;19910;42.652;23.332;2022-08-14T05:27:36;18.83;;;9.35;;
23175;SDS011;19910;42.652;23.332;2022-08-14T05:30:04;21.88;;;14.43;;
23175;SDS011;19910;42.652;23.332;2022-08-14T05:32:32;24.27;;;15.82;;
23175;SDS011;19910;42.652;23.332;2022-08-14T05:34:58;21.83;;;14.02;;
23175;SDS011;19910;42.652;23.332;2022-08-14T05:37:26;21.83;;;13.68;;
23175;SDS011;19910;42.652;23.332;2022-08-14T05:39:56;15.77;;;8.68;;
23175;SDS011;19910;42.652;23.332;2022-08-14T05:42:24;15.77;;;9.75;;
23175;SDS011;19910;42.652;23.332;2022-08-14T05:44:51;17.05;;;9.32;;
23175;SDS011;19910;42.652;23.332;2022-08-14T05:47:18;19.77;;;11.13;;
23175;SDS011;19910;42.652;23.332;2022-08-14T05:49:44;14.80;;;9.10;;
23175;SDS011;19910;42.652;23.332;2022-08-14T05:52:12;16.23;;;9.63;;
23175;SDS011;19910;42.652;23.332;2022-08-14T05:54:39;17.67;;;8.38;;
23175;SDS011;19910;42.652;23.332;2022-08-14T05:57:08;15.52;;;8.20;;
23175;SDS011;19910;42.652;23.332;2022-08-14T05:59:35;13.60;;;8.85;;
23175;SDS011;19910;42.652;23.332;2022-08-14T06:02:02;15.77;;;9.23;;
23175;SDS011;19910;42.652;23.332;2022-08-14T06:04:29;19.92;;;13.27;;
23175;SDS011;19910;42.652;23.332;2022-08-14T06:06:56;19.27;;;13.20;;
23175;SDS011;19910;42.652;23.332;2022-08-14T06:09:22;14.65;;;8.90;;
23175;SDS011;19910;42.652;23.332;2022-08-14T06:11:49;19.40;;;13.00;;
23175;SDS011;19910;42.652;23.332;2022-08-14T06:14:18;16.02;;;9.57;;
23175;SDS011;19910;42.652;23.332;2022-08-14T06:16:45;13.30;;;8.02;;
23175;SDS011;19910;42.652;23.332;2022-08-14T06:19:12;12.60;;;7.53;;
23175;SDS011;19910;42.652;23.332;2022-08-14T06:21:39;13.63;;;7.68;;
23175;SDS011;19910;42.652;23.332;2022-08-14T06:24:06;14.70;;;10.30;;
23175;SDS011;19910;42.652;23.332;2022-08-14T06:26:33;12.13;;;7.82;;
23175;SDS011;19910;42.652;23.332;2022-08-14T06:29:00;14.07;;;10.95;;
23175;SDS011;19910;42.652;23.332;2022-08-14T06:31:28;11.77;;;7.07;;
23175;SDS011;19910;42.652;23.332;2022-08-14T06:33:55;11.73;;;7.35;;
23175;SDS011;19910;42.652;23.332;2022-08-14T06:36:22;11.93;;;7.03;;
23175;SDS011;19910;42.652;23.332;2022-08-14T06:38:50;10.15;;;6.38;;
23175;SDS011;19910;42.652;23.332;2022-08-14T06:41:17;14.20;;;6.95;;
23175;SDS011;19910;42.652;23.332;2022-08-14T06:43:44;11.45;;;6.85;;
23175;SDS011;19910;42.652;23.332;2022-08-14T06:46:10;8.90;;;5.85;;
23175;SDS011;19910;42.652;23.332;2022-08-14T06:48:39;9.35;;;5.70;;
23175;SDS011;19910;42.652;23.332;2022-08-14T06:51:05;19.80;;;12.35;;
23175;SDS011;19910;42.652;23.332;2022-08-14T06:53:32;17.38;;;12.15;;
23175;SDS011;19910;42.652;23.332;2022-08-14T06:55:59;11.07;;;7.18;;
23175;SDS011;19910;42.652;23.332;2022-08-14T06:58:26;14.38;;;7.70;;
23175;SDS011;19910;42.652;23.332;2022-08-14T07:00:53;11.73;;;7.15;;
23175;SDS011;19910;42.652;23.332;2022-08-14T07:03:39;12.93;;;8.13;;
23175;SDS011;19910;42.652;23.332;2022-08-14T07:06:24;13.25;;;7.45;;
23175;SDS011;19910;42.652;23.332;2022-08-14T07:08:50;17.40;;;12.40;;
23175;SDS011;19910;42.652;23.332;2022-08-14T07:11:17;21.85;;;13.88;;
23175;SDS011;19910;42.652;23.332;2022-08-14T07:13:44;18.58;;;12.45;;
23175;SDS011;19910;42.652;23.332;2022-08-14T07:16:11;11.35;;;6.75;;
23175;SDS011;19910;42.652;23.332;2022-08-14T07:18:39;10.38;;;8.23;;
23175;SDS011;19910;42.652;23.332;2022-08-14T07:21:07;5.70;;;3.60;;
23175;SDS011;19910;42.652;23.332;2022-08-14T07:23:34;4.65;;;3.67;;
23175;SDS011;19910;42.652;23.332;2022-08-14T07:26:02;8.63;;;6.50;;
23175;SDS011;19910;42.652;23.332;2022-08-14T07:28:31;24.63;;;14.88;;
23175;SDS011;19910;42.652;23.332;2022-08-14T07:31:00;18.88;;;11.48;;
23175;SDS011;19910;42.652;23.332;2022-08-14T07:33:32;19.73;;;12.48;;
23175;SDS011;19910;42.652;23.332;2022-08-14T07:36:04;18.92;;;13.35;;
23175;SDS011;19910;42.652;23.332;2022-08-14T07:38:34;21.08;;;14.45;;
23175;SDS011;19910;42.652;23.332;2022-08-14T07:41:01;25.60;;;15.15;;
23175;SDS011;19910;42.652;23.332;2022-08-14T07:43:30;18.15;;;8.75;;
23175;SDS011;19910;42.652;23.332;2022-08-14T07:45:57;16.75;;;9.23;;
23175;SDS011;19910;42.652;23.332;2022-08-14T07:48:24;13.50;;;8.50;;
23175;SDS011;19910;42.652;23.332;2022-08-14T07:50:51;19.30;;;13.35;;
23175;SDS011;19910;42.652;23.332;2022-08-14T07:53:20;20.02;;;13.23;;
23175;SDS011;19910;42.652;23.332;2022-08-14T07:55:47;17.45;;;13.02;;
23175;SDS011;19910;42.652;23.332;2022-08-14T07:58:15;11.52;;;6.50;;
23175;SDS011;19910;42.652;23.332;2022-08-14T08:00:42;8.52;;;5.20;;
23175;SDS011;19910;42.652;23.332;2022-08-14T08:03:10;8.60;;;4.90;;
23175;SDS011;19910;42.652;23.332;2022-08-14T08:05:38;6.18;;;4.05;;
23175;SDS011;19910;42.652;23.332;2022-08-14T08:08:06;6.63;;;3.53;;
23175;SDS011;19910;42.652;23.332;2022-08-14T08:10:35;4.28;;;3.45;;
23175;SDS011;19910;42.652;23.332;2022-08-14T08:13:06;4.80;;;3.75;;
23175;SDS011;19910;42.652;23.332;2022-08-14T08:15:37;5.85;;;2.75;;
23175;SDS011;19910;42.652;23.332;2022-08-14T08:18:06;4.10;;;2.40;;
23175;SDS011;19910;42.652;23.332;2022-08-14T08:20:35;5.82;;;4.35;;
23175;SDS011;19910;42.652;23.332;2022-08-14T08:23:03;3.80;;;2.85;;
23175;SDS011;19910;42.652;23.332;2022-08-14T08:25:32;5.25;;;4.25;;
23175;SDS011;19910;42.652;23.332;2022-08-14T08:28:02;6.07;;;4.55;;
23175;SDS011;19910;42.652;23.332;2022-08-14T08:30:33;4.68;;;3.95;;
23175;SDS011;19910;42.652;23.332;2022-08-14T08:33:03;4.57;;;2.90;;
23175;SDS011;19910;42.652;23.332;2022-08-14T08:35:31;6.85;;;4.28;;
23175;SDS011;19910;42.652;23.332;2022-08-14T08:38:00;4.60;;;3.03;;
23175;SDS011;19910;42.652;23.332;2022-08-14T08:40:30;3.95;;;2.58;;
23175;SDS011;19910;42.652;23.332;2022-08-14T08:43:02;5.35;;;4.05;;
23175;SDS011;19910;42.652;23.332;2022-08-14T08:45:30;5.10;;;4.25;;
23175;SDS011;19910;42.652;23.332;2022-08-14T08:47:58;4.90;;;3.67;;
23175;SDS011;19910;42.652;23.332;2022-08-14T08:50:26;3.90;;;3.00;;
23175;SDS011;19910;42.652;23.332;2022-08-14T08:52:58;4.03;;;3.15;;
23175;SDS011;19910;42.652;23.332;2022-08-14T08:55:27;3.90;;;2.95;;
23175;SDS011;19910;42.652;23.332;2022-08-14T08:57:57;3.47;;;2.78;;
23175;SDS011;19910;42.652;23.332;2022-08-14T09:00:26;3.58;;;3.00;;
23175;SDS011;19910;42.652;23.332;2022-08-14T09:02:59;2.67;;;2.17;;
23175;SDS011;19910;42.652;23.332;2022-08-14T09:05:28;4.68;;;2.28;;
23175;SDS011;19910;42.652;23.332;2022-08-14T09:08:13;3.65;;;2.28;;
23175;SDS011;19910;42.652;23.332;2022-08-14T09:10:43;2.97;;;2.00;;
23175;SDS011;19910;42.652;23.332;2022-08-14T09:13:11;2.70;;;2.00;;
23175;SDS011;19910;42.652;23.332;2022-08-14T09:15:41;4.75;;;3.10;;
23175;SDS011;19910;42.652;23.332;2022-08-14T09:18:11;3.85;;;2.97;;
23175;SDS011;19910;42.652;23.332;2022-08-14T09:20:40;4.25;;;3.35;;
23175;SDS011;19910;42.652;23.332;2022-08-14T09:23:08;4.05;;;3.30;;
23175;SDS011;19910;42.652;23.332;2022-08-14T09:25:36;4.60;;;3.22;;
23175;SDS011;19910;42.652;23.332;2022-08-14T09:28:05;4.40;;;3.65;;
23175;SDS011;19910;42.652;23.332;2022-08-14T09:30:34;5.22;;;2.75;;
23175;SDS011;19910;42.652;23.332;2022-08-14T09:33:10;5.07;;;4.20;;
23175;SDS011;19910;42.652;23.332;2022-08-14T09:35:51;4.35;;;3.80;;
23175;SDS011;19910;42.652;23.332;2022-08-14T09:38:29;5.47;;;4.35;;
23175;SDS011;19910;42.652;23.332;2022-08-14T09:41:04;6.20;;;4.78;;
23175;SDS011;19910;42.652;23.332;2022-08-14T09:43:40;4.97;;;4.47;;
23175;SDS011;19910;42.652;23.332;2022-08-14T09:46:12;4.65;;;4.20;;
23175;SDS011;19910;42.652;23.332;2022-08-14T09:48:42;4.55;;;3.70;;
23175;SDS011;19910;42.652;23.332;2022-08-14T09:51:17;4.45;;;3.95;;
23175;SDS011;19910;42.652;23.332;2022-08-14T09:53:47;4.82;;;4.00;;
23175;SDS011;19910;42.652;23.332;2022-08-14T09:56:26;5.75;;;4.20;;
23175;SDS011;19910;42.652;23.332;2022-08-14T09:58:53;6.43;;;4.65;;
23175;SDS011;19910;42.652;23.332;2022-08-14T10:01:33;9.70;;;5.15;;
23175;SDS011;19910;42.652;23.332;2022-08-14T10:04:15;7.40;;;5.30;;
23175;SDS011;19910;42.652;23.332;2022-08-14T10:06:45;5.95;;;5.07;;
23175;SDS011;19910;42.652;23.332;2022-08-14T10:09:12;7.10;;;5.53;;
23175;SDS011;19910;42.652;23.332;2022-08-14T10:11:39;7.45;;;5.60;;
23175;SDS011;19910;42.652;23.332;2022-08-14T10:14:13;6.22;;;5.20;;
23175;SDS011;19910;42.652;23.332;2022-08-14T10:16:42;5.85;;;4.35;;
23175;SDS011;19910;42.652;23.332;2022-08-14T10:19:13;7.35;;;4.45;;
23175;SDS011;19910;42.652;23.332;2022-08-14T10:21:44;5.97;;;4.80;;
23175;SDS011;19910;42.652;23.332;2022-08-14T10:24:25;5.68;;;4.88;;
23175;SDS011;19910;42.652;23.332;2022-08-14T10:26:53;7.00;;;5.15;;
23175;SDS011;19910;42.652;23.332;2022-08-14T10:29:28;5.68;;;4.90;;
23175;SDS011;19910;42.652;23.332;2022-08-14T10:31:57;5.38;;;4.50;;
23175;SDS011;19910;42.652;23.332;2022-08-14T10:34:29;4.50;;;3.70;;
23175;SDS011;19910;42.652;23.332;2022-08-14T10:37:01;4.20;;;3.80;;
23175;SDS011;19910;42.652;23.332;2022-08-14T10:39:31;4.18;;;3.55;;
23175;SDS011;19910;42.652;23.332;2022-08-14T10:42:00;3.80;;;3.25;;
23175;SDS011;19910;42.652;23.332;2022-08-14T10:44:31;3.72;;;3.33;;
23175;SDS011;19910;42.652;23.332;2022-08-14T10:47:00;3.60;;;3.17;;
23175;SDS011;19910;42.652;23.332;2022-08-14T10:49:32;4.50;;;3.08;;
23175;SDS011;19910;42.652;23.332;2022-08-14T10:52:00;4.45;;;3.42;;
23175;SDS011;19910;42.652;23.332;2022-08-14T10:54:33;4.18;;;3.33;;
23175;SDS011;19910;42.652;23.332;2022-08-14T10:57:13;5.22;;;3.72;;
23175;SDS011;19910;42.652;23.332;2022-08-14T10:59:43;6.28;;;4.68;;
23175;SDS011;19910;42.652;23.332;2022-08-14T11:02:23;5.35;;;4.47;;
23175;SDS011;19910;42.652;23.332;2022-08-14T11:07:56;4.63;;;3.67;;
23175;SDS011;19910;42.652;23.332;2022-08-14T11:10:25;4.25;;;3.75;;
23175;SDS011;19910;42.652;23.332;2022-08-14T11:13:04;4.78;;;4.13;;
23175;SDS011;19910;42.652;23.332;2022-08-14T11:15:31;4.20;;;3.65;;
23175;SDS011;19910;42.652;23.332;2022-08-14T11:17:58;4.40;;;3.15;;
23175;SDS011;19910;42.652;23.332;2022-08-14T11:20:27;3.65;;;2.97;;
23175;SDS011;19910;42.652;23.332;2022-08-14T11:22:57;5.85;;;4.05;;
23175;SDS011;19910;42.652;23.332;2022-08-14T11:25:25;3.90;;;3.38;;
23175;SDS011;19910;42.652;23.332;2022-08-14T11:27:55;3.70;;;3.28;;
23175;SDS011;19910;42.652;23.332;2022-08-14T11:30:24;4.22;;;3.30;;
23175;SDS011;19910;42.652;23.332;2022-08-14T11:32:53;5.40;;;4.32;;
23175;SDS011;19910;42.652;23.332;2022-08-14T11:35:23;4.55;;;3.72;;
23175;SDS011;19910;42.652;23.332;2022-08-14T11:37:53;5.65;;;4.07;;
23175;SDS011;19910;42.652;23.332;2022-08-14T11:40:24;5.95;;;4.68;;
23175;SDS011;19910;42.652;23.332;2022-08-14T11:42:53;5.15;;;3.97;;
23175;SDS011;19910;42.652;23.332;2022-08-14T11:45:21;5.38;;;3.90;;
23175;SDS011;19910;42.652;23.332;2022-08-14T11:47:50;5.28;;;4.13;;
23175;SDS011;19910;42.652;23.332;2022-08-14T11:50:19;6.38;;;4.05;;
23175;SDS011;19910;42.652;23.332;2022-08-14T11:52:48;3.92;;;3.35;;
23175;SDS011;19910;42.652;23.332;2022-08-14T11:55:19;4.30;;;3.50;;
23175;SDS011;19910;42.652;23.332;2022-08-14T11:57:46;4.22;;;3.70;;
23175;SDS011;19910;42.652;23.332;2022-08-14T12:00:26;4.10;;;3.40;;
23175;SDS011;19910;42.652;23.332;2022-08-14T12:02:53;4.28;;;3.60;;
23175;SDS011;19910;42.652;23.332;2022-08-14T12:05:31;4.35;;;3.85;;
23175;SDS011;19910;42.652;23.332;2022-08-14T12:08:00;5.85;;;3.97;;
23175;SDS011;19910;42.652;23.332;2022-08-14T12:10:33;4.15;;;3.75;;
23175;SDS011;19910;42.652;23.332;2022-08-14T12:13:09;4.40;;;3.70;;
23175;SDS011;19910;42.652;23.332;2022-08-14T12:15:38;3.83;;;3.45;;
23175;SDS011;19910;42.652;23.332;2022-08-14T12:18:06;4.40;;;3.42;;
23175;SDS011;19910;42.652;23.332;2022-08-14T12:20:33;4.60;;;3.28;;
23175;SDS011;19910;42.652;23.332;2022-08-14T12:23:02;4.10;;;3.70;;
23175;SDS011;19910;42.652;23.332;2022-08-14T12:25:31;4.75;;;3.40;;
23175;SDS011;19910;42.652;23.332;2022-08-14T12:28:01;3.97;;;3.42;;
23175;SDS011;19910;42.652;23.332;2022-08-14T12:30:36;4.40;;;3.33;;
23175;SDS011;19910;42.652;23.332;2022-08-14T12:33:05;4.07;;;3.35;;
23175;SDS011;19910;42.652;23.332;2022-08-14T12:35:47;4.55;;;3.97;;
23175;SDS011;19910;42.652;23.332;2022-08-14T12:38:15;5.05;;;4.00;;
23175;SDS011;19910;42.652;23.332;2022-08-14T12:40:47;4.13;;;3.42;;
23175;SDS011;19910;42.652;23.332;2022-08-14T12:43:16;4.15;;;3.67;;
23175;SDS011;19910;42.652;23.332;2022-08-14T12:45:45;4.57;;;3.63;;
23175;SDS011;19910;42.652;23.332;2022-08-14T12:48:14;5.13;;;3.78;;
23175;SDS011;19910;42.652;23.332;2022-08-14T12:50:43;4.63;;;4.10;;
23175;SDS011;19910;42.652;23.332;2022-08-14T12:53:10;5.22;;;3.95;;
23175;SDS011;19910;42.652;23.332;2022-08-14T12:55:38;5.10;;;4.38;;
23175;SDS011;19910;42.652;23.332;2022-08-14T12:58:07;5.32;;;3.83;;
23175;SDS011;19910;42.652;23.332;2022-08-14T13:00:35;7.18;;;4.65;;
23175;SDS011;19910;42.652;23.332;2022-08-14T13:03:04;13.35;;;9.68;;
23175;SDS011;19910;42.652;23.332;2022-08-14T13:05:32;9.52;;;6.35;;
23175;SDS011;19910;42.652;23.332;2022-08-14T13:08:02;5.75;;;4.10;;
23175;SDS011;19910;42.652;23.332;2022-08-14T13:10:31;5.50;;;4.35;;
23175;SDS011;19910;42.652;23.332;2022-08-14T13:12:59;5.68;;;4.70;;
23175;SDS011;19910;42.652;23.332;2022-08-14T13:15:28;5.65;;;4.00;;
23175;SDS011;19910;42.652;23.332;2022-08-14T13:17:56;5.38;;;4.22;;
23175;SDS011;19910;42.652;23.332;2022-08-14T13:20:24;5.68;;;4.60;;
23175;SDS011;19910;42.652;23.332;2022-08-14T13:22:53;5.40;;;4.40;;
23175;SDS011;19910;42.652;23.332;2022-08-14T13:25:21;5.60;;;4.35;;
23175;SDS011;19910;42.652;23.332;2022-08-14T13:27:50;6.32;;;4.75;;
23175;SDS011;19910;42.652;23.332;2022-08-14T13:30:18;5.50;;;4.35;;
23175;SDS011;19910;42.652;23.332;2022-08-14T13:32:47;7.03;;;3.85;;
23175;SDS011;19910;42.652;23.332;2022-08-14T13:35:15;5.10;;;3.65;;
23175;SDS011;19910;42.652;23.332;2022-08-14T13:37:43;3.78;;;3.40;;
23175;SDS011;19910;42.652;23.332;2022-08-14T13:40:12;5.50;;;3.80;;
23175;SDS011;19910;42.652;23.332;2022-08-14T13:42:41;9.27;;;4.22;;
23175;SDS011;19910;42.652;23.332;2022-08-14T13:45:09;4.80;;;3.75;;
23175;SDS011;19910;42.652;23.332;2022-08-14T13:47:37;5.20;;;3.63;;
23175;SDS011;19910;42.652;23.332;2022-08-14T13:50:07;3.95;;;3.17;;
23175;SDS011;19910;42.652;23.332;2022-08-14T13:52:38;5.28;;;3.60;;
23175;SDS011;19910;42.652;23.332;2022-08-14T13:55:07;4.03;;;3.35;;
23175;SDS011;19910;42.652;23.332;2022-08-14T13:57:37;4.55;;;3.50;;
23175;SDS011;19910;42.652;23.332;2022-08-14T14:00:07;8.15;;;3.63;;
23175;SDS011;19910;42.652;23.332;2022-08-14T14:02:37;5.90;;;3.80;;
23175;SDS011;19910;42.652;23.332;2022-08-14T14:05:06;4.90;;;3.53;;
23175;SDS011;19910;42.652;23.332;2022-08-14T14:07:36;4.78;;;3.13;;
23175;SDS011;19910;42.652;23.332;2022-08-14T14:10:05;6.78;;;3.10;;
23175;SDS011;19910;42.652;23.332;2022-08-14T14:12:34;7.35;;;4.13;;
23175;SDS011;19910;42.652;23.332;2022-08-14T14:15:03;6.07;;;3.35;;
23175;SDS011;19910;42.652;23.332;2022-08-14T14:17:31;4.05;;;2.70;;
23175;SDS011;19910;42.652;23.332;2022-08-14T14:20:00;3.05;;;2.10;;
23175;SDS011;19910;42.652;23.332;2022-08-14T14:22:28;5.18;;;2.65;;
23175;SDS011;19910;42.652;23.332;2022-08-14T14:24:56;3.40;;;1.98;;
23175;SDS011;19910;42.652;23.332;2022-08-14T14:27:23;6.50;;;2.17;;
23175;SDS011;19910;42.652;23.332;2022-08-14T14:29:54;4.13;;;3.45;;
23175;SDS011;19910;42.652;23.332;2022-08-14T14:32:24;5.43;;;3.80;;
23175;SDS011;19910;42.652;23.332;2022-08-14T14:34:56;5.25;;;3.53;;
23175;SDS011;19910;42.652;23.332;2022-08-14T14:37:25;5.30;;;3.80;;
23175;SDS011;19910;42.652;23.332;2022-08-14T14:39:54;4.10;;;2.63;;
23175;SDS011;19910;42.652;23.332;2022-08-14T14:42:23;4.35;;;3.17;;